Austin, Minnesota
Current Conditions -  °F | °C
As of 7:36 PM on Saturday 20 Dec 2014 (Local Time) from KAUM Reporting Station
Overcast Overcast  
Wind Chill: 25°   Ceiling: 1600
Heat Index: 30°   Visibility: 7mi
Dew Point: 27°   Wind: 5mph
Humidity: 86%   Direction: 160°SSE
Pressure: 30.12"   Gusts: NA
Location:  43.67°N, 92.97°W
Report Text: KAUM 210136Z AUTO 16004KT 7SM OVC016 M01/M03 A3012 RMK AO2
Loading
Personal Weather Stations






























Interactive Weather Map New forecast layout! Learn more

10-Day Weather Forecast

Advertisements
Track Severe Weather on mobile